Terminal Aerodrome Forecast
Issued by NWS Raleigh/Durham, NC

Home | Current Version | Previous Version | Text Only | Print | Product List | Glossary On
Versions: 1 2 3 4 5 6 7 8 9 10 11 12 13 14 15 16 17 18
000
FTUS42 KRAH 282341 AAC
TAFRDU
TAF AMD
KRDU 282341Z 2900/2924 24008KT P6SM VCTS SCT012 BKN035CB
      TEMPO 2900/2902 VRB25G40KT 1SM TSRAGS BR SCT008 BKN018CB
     FM290400 01003KT P6SM BKN090
     FM290800 VRB03KT 2SM BR BKN004
      TEMPO 2909/2913 1SM BR OVC002
     FM291500 32005KT P6SM SCT025=

USA.gov is the U.S. government's official web portal to all federal, state and local government web resources and services.